sensor_id;sensor_type;location;lat;lon;timestamp;temperature;humidity
5846;DHT22;2949;50.778;7.094;2023-09-19T00:00:57;15.30;99.90
5846;DHT22;2949;50.778;7.094;2023-09-19T00:03:23;15.30;99.90
5846;DHT22;2949;50.778;7.094;2023-09-19T00:05:50;15.20;99.90
5846;DHT22;2949;50.778;7.094;2023-09-19T00:08:16;15.10;99.90
5846;DHT22;2949;50.778;7.094;2023-09-19T00:10:42;15.10;99.90
5846;DHT22;2949;50.778;7.094;2023-09-19T00:13:08;15.10;99.90
5846;DHT22;2949;50.778;7.094;2023-09-19T00:15:39;15.00;99.90
5846;DHT22;2949;50.778;7.094;2023-09-19T00:18:06;15.00;99.90
5846;DHT22;2949;50.778;7.094;2023-09-19T00:20:35;15.10;99.90
5846;DHT22;2949;50.778;7.094;2023-09-19T00:23:00;15.10;99.90
5846;DHT22;2949;50.778;7.094;2023-09-19T00:25:28;15.10;99.90
5846;DHT22;2949;50.778;7.094;2023-09-19T00:27:54;15.20;99.90
5846;DHT22;2949;50.778;7.094;2023-09-19T00:30:21;15.20;99.90
5846;DHT22;2949;50.778;7.094;2023-09-19T00:32:50;15.20;99.90
5846;DHT22;2949;50.778;7.094;2023-09-19T00:35:22;15.20;99.90
5846;DHT22;2949;50.778;7.094;2023-09-19T00:37:51;15.30;99.90
5846;DHT22;2949;50.778;7.094;2023-09-19T00:40:17;15.30;99.90
5846;DHT22;2949;50.778;7.094;2023-09-19T00:42:47;15.20;99.90
5846;DHT22;2949;50.778;7.094;2023-09-19T00:45:16;15.20;99.90
5846;DHT22;2949;50.778;7.094;2023-09-19T00:47:46;15.10;99.90
5846;DHT22;2949;50.778;7.094;2023-09-19T00:50:15;15.10;99.90
5846;DHT22;2949;50.778;7.094;2023-09-19T00:52:43;15.00;99.90
5846;DHT22;2949;50.778;7.094;2023-09-19T00:55:10;14.90;99.90
5846;DHT22;2949;50.778;7.094;2023-09-19T00:57:36;14.90;99.90
5846;DHT22;2949;50.778;7.094;2023-09-19T01:00:04;14.90;99.90
5846;DHT22;2949;50.778;7.094;2023-09-19T01:02:36;14.90;99.90
5846;DHT22;2949;50.778;7.094;2023-09-19T01:05:02;14.90;99.90
5846;DHT22;2949;50.778;7.094;2023-09-19T01:07:31;15.00;99.90
5846;DHT22;2949;50.778;7.094;2023-09-19T01:09:58;15.10;99.90
5846;DHT22;2949;50.778;7.094;2023-09-19T01:12:49;15.10;99.90
5846;DHT22;2949;50.778;7.094;2023-09-19T01:23:47;15.50;99.90
5846;DHT22;2949;50.778;7.094;2023-09-19T01:26:43;15.60;99.90
5846;DHT22;2949;50.778;7.094;2023-09-19T01:29:33;15.60;99.90
5846;DHT22;2949;50.778;7.094;2023-09-19T01:32:03;15.60;99.90
5846;DHT22;2949;50.778;7.094;2023-09-19T01:34:55;15.70;99.90
5846;DHT22;2949;50.778;7.094;2023-09-19T01:37:24;15.70;99.90
5846;DHT22;2949;50.778;7.094;2023-09-19T01:40:07;15.70;99.90
5846;DHT22;2949;50.778;7.094;2023-09-19T01:42:58;15.80;99.90
5846;DHT22;2949;50.778;7.094;2023-09-19T01:49:10;15.80;99.90
5846;DHT22;2949;50.778;7.094;2023-09-19T01:51:53;15.80;99.90
5846;DHT22;2949;50.778;7.094;2023-09-19T01:54:31;15.80;99.90
5846;DHT22;2949;50.778;7.094;2023-09-19T01:57:03;15.80;99.90
5846;DHT22;2949;50.778;7.094;2023-09-19T01:59:41;15.80;99.90
5846;DHT22;2949;50.778;7.094;2023-09-19T02:02:09;15.80;99.90
5846;DHT22;2949;50.778;7.094;2023-09-19T02:04:35;15.80;99.90
5846;DHT22;2949;50.778;7.094;2023-09-19T02:07:02;15.80;99.90
5846;DHT22;2949;50.778;7.094;2023-09-19T02:09:28;15.80;99.90
5846;DHT22;2949;50.778;7.094;2023-09-19T02:11:53;15.80;99.90
5846;DHT22;2949;50.778;7.094;2023-09-19T02:14:21;15.80;99.90
5846;DHT22;2949;50.778;7.094;2023-09-19T02:16:47;15.80;99.90
5846;DHT22;2949;50.778;7.094;2023-09-19T02:19:15;15.70;99.90
5846;DHT22;2949;50.778;7.094;2023-09-19T02:21:40;15.70;99.90
5846;DHT22;2949;50.778;7.094;2023-09-19T02:24:06;15.60;99.90
5846;DHT22;2949;50.778;7.094;2023-09-19T02:26:33;15.50;99.90
5846;DHT22;2949;50.778;7.094;2023-09-19T02:29:01;15.50;99.90
5846;DHT22;2949;50.778;7.094;2023-09-19T02:31:30;15.40;99.90
5846;DHT22;2949;50.778;7.094;2023-09-19T02:33:56;15.40;99.90
5846;DHT22;2949;50.778;7.094;2023-09-19T02:36:22;15.30;99.90
5846;DHT22;2949;50.778;7.094;2023-09-19T02:38:49;15.30;99.90
5846;DHT22;2949;50.778;7.094;2023-09-19T02:41:14;15.30;99.90
5846;DHT22;2949;50.778;7.094;2023-09-19T02:43:40;15.20;99.90
5846;DHT22;2949;50.778;7.094;2023-09-19T02:46:06;15.20;99.90
5846;DHT22;2949;50.778;7.094;2023-09-19T02:48:32;15.10;99.90
5846;DHT22;2949;50.778;7.094;2023-09-19T02:50:59;15.10;99.90
5846;DHT22;2949;50.778;7.094;2023-09-19T02:53:25;15.10;99.90
5846;DHT22;2949;50.778;7.094;2023-09-19T02:55:51;15.00;99.90
5846;DHT22;2949;50.778;7.094;2023-09-19T02:58:17;14.90;99.90
5846;DHT22;2949;50.778;7.094;2023-09-19T03:00:43;14.80;99.90
5846;DHT22;2949;50.778;7.094;2023-09-19T03:03:12;14.80;99.90
5846;DHT22;2949;50.778;7.094;2023-09-19T03:05:38;14.80;99.90
5846;DHT22;2949;50.778;7.094;2023-09-19T03:08:04;14.80;99.90
5846;DHT22;2949;50.778;7.094;2023-09-19T03:10:30;14.80;99.90
5846;DHT22;2949;50.778;7.094;2023-09-19T03:12:56;14.70;99.90
5846;DHT22;2949;50.778;7.094;2023-09-19T03:15:22;14.70;99.90
5846;DHT22;2949;50.778;7.094;2023-09-19T03:17:48;14.60;99.90
5846;DHT22;2949;50.778;7.094;2023-09-19T03:20:15;14.50;99.90
5846;DHT22;2949;50.778;7.094;2023-09-19T03:22:43;14.50;99.90
5846;DHT22;2949;50.778;7.094;2023-09-19T03:25:09;14.50;99.90
5846;DHT22;2949;50.778;7.094;2023-09-19T03:27:39;14.40;99.90
5846;DHT22;2949;50.778;7.094;2023-09-19T03:30:06;14.30;99.90
5846;DHT22;2949;50.778;7.094;2023-09-19T03:32:37;14.30;99.90
5846;DHT22;2949;50.778;7.094;2023-09-19T03:35:03;14.30;99.90
5846;DHT22;2949;50.778;7.094;2023-09-19T03:37:31;14.30;99.90
5846;DHT22;2949;50.778;7.094;2023-09-19T03:39:57;14.30;99.90
5846;DHT22;2949;50.778;7.094;2023-09-19T03:42:23;14.30;99.90
5846;DHT22;2949;50.778;7.094;2023-09-19T03:44:51;14.30;99.90
5846;DHT22;2949;50.778;7.094;2023-09-19T03:47:17;14.20;99.90
5846;DHT22;2949;50.778;7.094;2023-09-19T03:49:44;14.20;99.90
5846;DHT22;2949;50.778;7.094;2023-09-19T03:52:09;14.10;99.90
5846;DHT22;2949;50.778;7.094;2023-09-19T03:54:35;14.00;99.90
5846;DHT22;2949;50.778;7.094;2023-09-19T03:57:00;13.90;99.90
5846;DHT22;2949;50.778;7.094;2023-09-19T03:59:26;13.90;99.90
5846;DHT22;2949;50.778;7.094;2023-09-19T04:01:52;13.90;99.90
5846;DHT22;2949;50.778;7.094;2023-09-19T04:04:21;13.90;99.90
5846;DHT22;2949;50.778;7.094;2023-09-19T04:06:46;13.90;99.90
5846;DHT22;2949;50.778;7.094;2023-09-19T04:09:12;13.90;99.90
5846;DHT22;2949;50.778;7.094;2023-09-19T04:11:38;13.90;99.90
5846;DHT22;2949;50.778;7.094;2023-09-19T04:14:03;13.90;99.90
5846;DHT22;2949;50.778;7.094;2023-09-19T04:16:29;13.90;99.90
5846;DHT22;2949;50.778;7.094;2023-09-19T04:18:55;13.90;99.90
5846;DHT22;2949;50.778;7.094;2023-09-19T04:21:20;13.80;99.90
5846;DHT22;2949;50.778;7.094;2023-09-19T04:23:46;13.70;99.90
5846;DHT22;2949;50.778;7.094;2023-09-19T04:26:12;13.70;99.90
5846;DHT22;2949;50.778;7.094;2023-09-19T04:28:38;13.70;99.90
5846;DHT22;2949;50.778;7.094;2023-09-19T04:31:04;13.70;99.90
5846;DHT22;2949;50.778;7.094;2023-09-19T04:33:29;13.70;99.90
5846;DHT22;2949;50.778;7.094;2023-09-19T04:35:55;13.70;99.90
5846;DHT22;2949;50.778;7.094;2023-09-19T04:38:21;13.70;99.90
5846;DHT22;2949;50.778;7.094;2023-09-19T04:40:47;13.70;99.90
5846;DHT22;2949;50.778;7.094;2023-09-19T04:43:13;13.70;99.90
5846;DHT22;2949;50.778;7.094;2023-09-19T04:45:39;13.70;99.90
5846;DHT22;2949;50.778;7.094;2023-09-19T04:48:06;13.60;99.90
5846;DHT22;2949;50.778;7.094;2023-09-19T04:50:34;13.60;99.90
5846;DHT22;2949;50.778;7.094;2023-09-19T04:53:00;13.60;99.90
5846;DHT22;2949;50.778;7.094;2023-09-19T04:55:26;13.60;99.90
5846;DHT22;2949;50.778;7.094;2023-09-19T04:57:52;13.60;99.90
5846;DHT22;2949;50.778;7.094;2023-09-19T05:00:20;13.50;99.90
5846;DHT22;2949;50.778;7.094;2023-09-19T05:02:50;13.50;99.90
5846;DHT22;2949;50.778;7.094;2023-09-19T05:05:17;13.50;99.90
5846;DHT22;2949;50.778;7.094;2023-09-19T05:07:43;13.50;99.90
5846;DHT22;2949;50.778;7.094;2023-09-19T05:10:12;13.50;99.90
5846;DHT22;2949;50.778;7.094;2023-09-19T05:12:38;13.50;99.90
5846;DHT22;2949;50.778;7.094;2023-09-19T05:15:04;13.60;99.90
5846;DHT22;2949;50.778;7.094;2023-09-19T05:17:32;13.60;99.90
5846;DHT22;2949;50.778;7.094;2023-09-19T05:19:58;13.60;99.90
5846;DHT22;2949;50.778;7.094;2023-09-19T05:22:26;13.60;99.90
5846;DHT22;2949;50.778;7.094;2023-09-19T05:24:52;13.50;99.90
5846;DHT22;2949;50.778;7.094;2023-09-19T05:27:18;13.50;99.90
5846;DHT22;2949;50.778;7.094;2023-09-19T05:29:46;13.60;99.90
5846;DHT22;2949;50.778;7.094;2023-09-19T05:32:12;13.60;99.90
5846;DHT22;2949;50.778;7.094;2023-09-19T05:34:38;13.60;99.90
5846;DHT22;2949;50.778;7.094;2023-09-19T05:37:04;13.60;99.90
5846;DHT22;2949;50.778;7.094;2023-09-19T05:39:33;13.60;99.90
5846;DHT22;2949;50.778;7.094;2023-09-19T05:41:59;13.70;99.90
5846;DHT22;2949;50.778;7.094;2023-09-19T05:44:25;13.80;99.90
5846;DHT22;2949;50.778;7.094;2023-09-19T05:46:51;13.80;99.90
5846;DHT22;2949;50.778;7.094;2023-09-19T05:49:17;13.90;99.90
5846;DHT22;2949;50.778;7.094;2023-09-19T05:51:43;13.90;99.90
5846;DHT22;2949;50.778;7.094;2023-09-19T05:54:08;14.00;99.90
5846;DHT22;2949;50.778;7.094;2023-09-19T05:56:36;14.10;99.90
5846;DHT22;2949;50.778;7.094;2023-09-19T05:59:01;14.20;99.90
5846;DHT22;2949;50.778;7.094;2023-09-19T06:01:29;14.30;99.90
5846;DHT22;2949;50.778;7.094;2023-09-19T06:03:56;14.40;99.90
5846;DHT22;2949;50.778;7.094;2023-09-19T06:06:21;14.50;99.90
5846;DHT22;2949;50.778;7.094;2023-09-19T06:08:47;14.60;99.90
5846;DHT22;2949;50.778;7.094;2023-09-19T06:11:15;14.70;99.90
5846;DHT22;2949;50.778;7.094;2023-09-19T06:13:41;14.70;99.90
5846;DHT22;2949;50.778;7.094;2023-09-19T06:16:07;14.80;99.90
5846;DHT22;2949;50.778;7.094;2023-09-19T06:18:32;14.90;99.90
5846;DHT22;2949;50.778;7.094;2023-09-19T06:20:59;14.90;99.90
5846;DHT22;2949;50.778;7.094;2023-09-19T06:23:25;15.00;99.90
5846;DHT22;2949;50.778;7.094;2023-09-19T06:25:52;15.10;99.90
5846;DHT22;2949;50.778;7.094;2023-09-19T06:28:18;15.10;99.90
5846;DHT22;2949;50.778;7.094;2023-09-19T06:30:49;15.20;99.90
5846;DHT22;2949;50.778;7.094;2023-09-19T06:33:15;15.30;99.90
5846;DHT22;2949;50.778;7.094;2023-09-19T06:35:41;15.30;99.90
5846;DHT22;2949;50.778;7.094;2023-09-19T06:38:07;15.40;99.90
5846;DHT22;2949;50.778;7.094;2023-09-19T06:40:34;15.50;99.90
5846;DHT22;2949;50.778;7.094;2023-09-19T06:42:59;15.70;99.90
5846;DHT22;2949;50.778;7.094;2023-09-19T06:45:27;15.80;99.90
5846;DHT22;2949;50.778;7.094;2023-09-19T06:47:52;15.90;99.90
5846;DHT22;2949;50.778;7.094;2023-09-19T06:50:22;16.00;99.90
5846;DHT22;2949;50.778;7.094;2023-09-19T06:52:49;16.20;99.90
5846;DHT22;2949;50.778;7.094;2023-09-19T06:55:17;16.40;99.90
5846;DHT22;2949;50.778;7.094;2023-09-19T06:57:44;16.60;99.90
5846;DHT22;2949;50.778;7.094;2023-09-19T07:00:11;16.80;99.90
5846;DHT22;2949;50.778;7.094;2023-09-19T07:03:01;17.00;99.90
5846;DHT22;2949;50.778;7.094;2023-09-19T07:05:32;17.20;99.90
5846;DHT22;2949;50.778;7.094;2023-09-19T07:07:59;17.60;99.90
5846;DHT22;2949;50.778;7.094;2023-09-19T07:10:28;18.00;99.90
5846;DHT22;2949;50.778;7.094;2023-09-19T07:13:04;18.30;99.90
5846;DHT22;2949;50.778;7.094;2023-09-19T07:15:33;18.30;99.90
5846;DHT22;2949;50.778;7.094;2023-09-19T07:18:05;18.20;99.90
5846;DHT22;2949;50.778;7.094;2023-09-19T07:20:31;18.40;99.90
5846;DHT22;2949;50.778;7.094;2023-09-19T07:22:58;18.60;99.90
5846;DHT22;2949;50.778;7.094;2023-09-19T07:25:27;19.00;99.90
5846;DHT22;2949;50.778;7.094;2023-09-19T07:27:55;19.30;99.90
5846;DHT22;2949;50.778;7.094;2023-09-19T07:30:21;19.70;99.90
5846;DHT22;2949;50.778;7.094;2023-09-19T07:32:48;20.10;99.90
5846;DHT22;2949;50.778;7.094;2023-09-19T07:35:13;20.60;99.90
5846;DHT22;2949;50.778;7.094;2023-09-19T07:37:40;21.20;99.90
5846;DHT22;2949;50.778;7.094;2023-09-19T07:40:06;21.80;99.90
5846;DHT22;2949;50.778;7.094;2023-09-19T07:42:37;22.00;99.90
5846;DHT22;2949;50.778;7.094;2023-09-19T07:45:06;22.50;99.90
5846;DHT22;2949;50.778;7.094;2023-09-19T07:47:33;23.00;99.90
5846;DHT22;2949;50.778;7.094;2023-09-19T07:49:59;23.10;99.90
5846;DHT22;2949;50.778;7.094;2023-09-19T07:52:27;23.20;99.90
5846;DHT22;2949;50.778;7.094;2023-09-19T07:54:53;23.40;99.90
5846;DHT22;2949;50.778;7.094;2023-09-19T07:57:18;24.00;99.90
5846;DHT22;2949;50.778;7.094;2023-09-19T07:59:45;24.30;98.80
5846;DHT22;2949;50.778;7.094;2023-09-19T08:02:11;24.00;99.10
5846;DHT22;2949;50.778;7.094;2023-09-19T08:04:44;24.10;98.60
5846;DHT22;2949;50.778;7.094;2023-09-19T08:07:12;24.60;98.30
5846;DHT22;2949;50.778;7.094;2023-09-19T08:09:38;25.00;97.00
5846;DHT22;2949;50.778;7.094;2023-09-19T08:12:05;25.00;94.10
5846;DHT22;2949;50.778;7.094;2023-09-19T08:14:30;24.50;94.10
5846;DHT22;2949;50.778;7.094;2023-09-19T08:16:57;24.10;95.10
5846;DHT22;2949;50.778;7.094;2023-09-19T08:19:26;24.10;95.90
5846;DHT22;2949;50.778;7.094;2023-09-19T08:21:57;23.70;96.60
5846;DHT22;2949;50.778;7.094;2023-09-19T08:24:30;24.20;97.60
5846;DHT22;2949;50.778;7.094;2023-09-19T08:26:56;24.70;95.20
5846;DHT22;2949;50.778;7.094;2023-09-19T08:29:26;24.90;94.70
5846;DHT22;2949;50.778;7.094;2023-09-19T08:31:57;24.90;93.40
5846;DHT22;2949;50.778;7.094;2023-09-19T08:34:23;25.10;93.70
5846;DHT22;2949;50.778;7.094;2023-09-19T08:36:54;24.80;92.70
5846;DHT22;2949;50.778;7.094;2023-09-19T08:39:26;25.00;92.90
5846;DHT22;2949;50.778;7.094;2023-09-19T08:42:01;24.80;92.50
5846;DHT22;2949;50.778;7.094;2023-09-19T08:44:27;25.10;93.00
5846;DHT22;2949;50.778;7.094;2023-09-19T08:47:07;25.80;91.30
5846;DHT22;2949;50.778;7.094;2023-09-19T08:49:45;26.20;86.60
5846;DHT22;2949;50.778;7.094;2023-09-19T08:52:32;25.90;86.40
5846;DHT22;2949;50.778;7.094;2023-09-19T08:55:02;24.70;89.70
5846;DHT22;2949;50.778;7.094;2023-09-19T08:57:33;24.20;90.10
5846;DHT22;2949;50.778;7.094;2023-09-19T09:00:02;24.40;90.60
5846;DHT22;2949;50.778;7.094;2023-09-19T09:02:31;24.70;90.50
5846;DHT22;2949;50.778;7.094;2023-09-19T09:04:59;25.20;89.70
5846;DHT22;2949;50.778;7.094;2023-09-19T09:07:25;25.80;87.10
5846;DHT22;2949;50.778;7.094;2023-09-19T09:09:53;25.90;85.20
5846;DHT22;2949;50.778;7.094;2023-09-19T09:12:18;26.10;84.10
5846;DHT22;2949;50.778;7.094;2023-09-19T09:14:47;26.50;83.70
5846;DHT22;2949;50.778;7.094;2023-09-19T09:17:14;27.00;81.00
5846;DHT22;2949;50.778;7.094;2023-09-19T09:19:40;27.30;82.00
5846;DHT22;2949;50.778;7.094;2023-09-19T09:22:09;27.70;79.30
5846;DHT22;2949;50.778;7.094;2023-09-19T09:24:34;27.70;77.30
5846;DHT22;2949;50.778;7.094;2023-09-19T09:27:04;27.60;75.20
5846;DHT22;2949;50.778;7.094;2023-09-19T09:29:45;27.70;75.50
5846;DHT22;2949;50.778;7.094;2023-09-19T09:32:28;27.70;76.60
5846;DHT22;2949;50.778;7.094;2023-09-19T09:35:03;27.40;77.60
5846;DHT22;2949;50.778;7.094;2023-09-19T09:37:34;26.90;76.40
5846;DHT22;2949;50.778;7.094;2023-09-19T09:40:04;26.60;77.50
5846;DHT22;2949;50.778;7.094;2023-09-19T09:42:42;26.40;77.20
5846;DHT22;2949;50.778;7.094;2023-09-19T09:45:16;26.30;77.40
5846;DHT22;2949;50.778;7.094;2023-09-19T09:47:47;26.30;77.90
5846;DHT22;2949;50.778;7.094;2023-09-19T09:50:28;26.50;76.00
5846;DHT22;2949;50.778;7.094;2023-09-19T09:53:24;26.50;75.40
5846;DHT22;2949;50.778;7.094;2023-09-19T09:56:06;26.50;75.00
5846;DHT22;2949;50.778;7.094;2023-09-19T09:58:36;25.70;78.80
5846;DHT22;2949;50.778;7.094;2023-09-19T10:01:03;25.10;80.10
5846;DHT22;2949;50.778;7.094;2023-09-19T10:03:36;24.30;81.60
5846;DHT22;2949;50.778;7.094;2023-09-19T10:06:06;24.70;81.70
5846;DHT22;2949;50.778;7.094;2023-09-19T10:09:06;24.30;82.00
5846;DHT22;2949;50.778;7.094;2023-09-19T10:12:06;24.10;84.40
5846;DHT22;2949;50.778;7.094;2023-09-19T10:14:37;23.90;84.20
5846;DHT22;2949;50.778;7.094;2023-09-19T10:17:05;23.50;85.20
5846;DHT22;2949;50.778;7.094;2023-09-19T10:19:37;23.20;87.70
5846;DHT22;2949;50.778;7.094;2023-09-19T10:22:04;23.20;87.10
5846;DHT22;2949;50.778;7.094;2023-09-19T10:24:33;23.70;88.60
5846;DHT22;2949;50.778;7.094;2023-09-19T10:27:00;23.80;88.10
5846;DHT22;2949;50.778;7.094;2023-09-19T10:29:28;24.20;85.90
5846;DHT22;2949;50.778;7.094;2023-09-19T10:31:58;24.40;85.30
5846;DHT22;2949;50.778;7.094;2023-09-19T10:34:25;24.90;84.50
5846;DHT22;2949;50.778;7.094;2023-09-19T10:36:52;25.40;81.40
5846;DHT22;2949;50.778;7.094;2023-09-19T10:39:18;25.10;81.60
5846;DHT22;2949;50.778;7.094;2023-09-19T10:41:51;25.30;80.20
5846;DHT22;2949;50.778;7.094;2023-09-19T10:44:25;25.40;78.40
5846;DHT22;2949;50.778;7.094;2023-09-19T10:46:52;25.50;76.60
5846;DHT22;2949;50.778;7.094;2023-09-19T10:49:20;25.60;77.70
5846;DHT22;2949;50.778;7.094;2023-09-19T10:51:47;25.20;77.80
5846;DHT22;2949;50.778;7.094;2023-09-19T10:54:17;25.30;78.70
5846;DHT22;2949;50.778;7.094;2023-09-19T10:56:49;25.70;78.00
5846;DHT22;2949;50.778;7.094;2023-09-19T10:59:17;25.60;76.70
5846;DHT22;2949;50.778;7.094;2023-09-19T11:01:54;25.20;75.60
5846;DHT22;2949;50.778;7.094;2023-09-19T11:04:30;24.40;79.00
5846;DHT22;2949;50.778;7.094;2023-09-19T11:07:04;23.90;80.30
5846;DHT22;2949;50.778;7.094;2023-09-19T11:09:53;23.60;84.30
5846;DHT22;2949;50.778;7.094;2023-09-19T11:14:57;23.10;84.50
5846;DHT22;2949;50.778;7.094;2023-09-19T11:17:30;23.10;83.50
5846;DHT22;2949;50.778;7.094;2023-09-19T11:30:50;23.20;81.50
5846;DHT22;2949;50.778;7.094;2023-09-19T11:33:29;23.00;82.10
5846;DHT22;2949;50.778;7.094;2023-09-19T11:36:08;22.80;82.70
5846;DHT22;2949;50.778;7.094;2023-09-19T11:43:55;22.50;83.90
5846;DHT22;2949;50.778;7.094;2023-09-19T11:49:17;22.30;82.70
5846;DHT22;2949;50.778;7.094;2023-09-19T11:51:50;22.30;82.20
5846;DHT22;2949;50.778;7.094;2023-09-19T11:54:17;22.40;83.30
5846;DHT22;2949;50.778;7.094;2023-09-19T11:56:51;22.30;82.70
5846;DHT22;2949;50.778;7.094;2023-09-19T11:59:24;22.50;80.80
5846;DHT22;2949;50.778;7.094;2023-09-19T12:01:55;22.70;81.00
5846;DHT22;2949;50.778;7.094;2023-09-19T12:04:40;22.60;80.70
5846;DHT22;2949;50.778;7.094;2023-09-19T12:07:10;22.70;82.00
5846;DHT22;2949;50.778;7.094;2023-09-19T12:09:42;22.60;80.30
5846;DHT22;2949;50.778;7.094;2023-09-19T12:12:28;22.30;84.10
5846;DHT22;2949;50.778;7.094;2023-09-19T12:14:54;22.40;85.10
5846;DHT22;2949;50.778;7.094;2023-09-19T12:17:21;22.40;85.30
5846;DHT22;2949;50.778;7.094;2023-09-19T12:19:53;22.40;84.20
5846;DHT22;2949;50.778;7.094;2023-09-19T12:22:19;22.30;84.70
5846;DHT22;2949;50.778;7.094;2023-09-19T12:24:46;22.30;83.50
5846;DHT22;2949;50.778;7.094;2023-09-19T12:27:12;22.30;84.50
5846;DHT22;2949;50.778;7.094;2023-09-19T12:29:48;22.30;84.40
5846;DHT22;2949;50.778;7.094;2023-09-19T12:32:15;22.30;86.30
5846;DHT22;2949;50.778;7.094;2023-09-19T12:34:53;22.30;85.30
5846;DHT22;2949;50.778;7.094;2023-09-19T12:37:20;22.10;85.00
5846;DHT22;2949;50.778;7.094;2023-09-19T12:39:53;22.00;85.50
5846;DHT22;2949;50.778;7.094;2023-09-19T12:42:39;22.10;85.30
5846;DHT22;2949;50.778;7.094;2023-09-19T12:45:07;22.30;86.80
5846;DHT22;2949;50.778;7.094;2023-09-19T12:47:34;22.20;85.90
5846;DHT22;2949;50.778;7.094;2023-09-19T12:50:11;22.20;85.80
5846;DHT22;2949;50.778;7.094;2023-09-19T12:52:48;22.10;86.70
5846;DHT22;2949;50.778;7.094;2023-09-19T12:55:28;22.00;87.00
5846;DHT22;2949;50.778;7.094;2023-09-19T13:00:39;22.10;88.90
5846;DHT22;2949;50.778;7.094;2023-09-19T13:03:16;22.10;85.90
5846;DHT22;2949;50.778;7.094;2023-09-19T13:05:48;22.20;87.70
5846;DHT22;2949;50.778;7.094;2023-09-19T13:08:39;22.20;88.50
5846;DHT22;2949;50.778;7.094;2023-09-19T13:13:47;22.10;87.80
5846;DHT22;2949;50.778;7.094;2023-09-19T13:16:20;22.10;88.60
5846;DHT22;2949;50.778;7.094;2023-09-19T13:18:51;22.20;85.30
5846;DHT22;2949;50.778;7.094;2023-09-19T13:21:31;22.10;87.50
5846;DHT22;2949;50.778;7.094;2023-09-19T13:24:24;22.10;85.80
5846;DHT22;2949;50.778;7.094;2023-09-19T13:26:55;22.20;87.30
5846;DHT22;2949;50.778;7.094;2023-09-19T13:29:21;22.20;86.00
5846;DHT22;2949;50.778;7.094;2023-09-19T13:31:51;22.20;88.00
5846;DHT22;2949;50.778;7.094;2023-09-19T13:34:18;22.10;85.90
5846;DHT22;2949;50.778;7.094;2023-09-19T13:36:45;21.90;88.70
5846;DHT22;2949;50.778;7.094;2023-09-19T13:39:14;21.70;86.40
5846;DHT22;2949;50.778;7.094;2023-09-19T13:41:41;21.40;90.40
5846;DHT22;2949;50.778;7.094;2023-09-19T13:44:08;21.20;90.00
5846;DHT22;2949;50.778;7.094;2023-09-19T13:46:36;21.10;90.40
5846;DHT22;2949;50.778;7.094;2023-09-19T13:49:02;21.10;90.00
5846;DHT22;2949;50.778;7.094;2023-09-19T13:51:30;21.20;89.20
5846;DHT22;2949;50.778;7.094;2023-09-19T13:53:56;21.20;90.60
5846;DHT22;2949;50.778;7.094;2023-09-19T13:56:21;21.20;91.10
5846;DHT22;2949;50.778;7.094;2023-09-19T13:58:47;21.40;90.90
5846;DHT22;2949;50.778;7.094;2023-09-19T14:01:12;21.60;90.80
5846;DHT22;2949;50.778;7.094;2023-09-19T14:03:39;21.70;89.90
5846;DHT22;2949;50.778;7.094;2023-09-19T14:06:05;21.80;89.60
5846;DHT22;2949;50.778;7.094;2023-09-19T14:08:30;21.90;90.20
5846;DHT22;2949;50.778;7.094;2023-09-19T14:10:56;22.00;87.20
5846;DHT22;2949;50.778;7.094;2023-09-19T14:13:21;22.00;86.50
5846;DHT22;2949;50.778;7.094;2023-09-19T14:15:47;22.00;88.60
5846;DHT22;2949;50.778;7.094;2023-09-19T14:18:13;22.10;87.80
5846;DHT22;2949;50.778;7.094;2023-09-19T14:20:39;22.10;87.70
5846;DHT22;2949;50.778;7.094;2023-09-19T14:23:07;22.10;90.30
5846;DHT22;2949;50.778;7.094;2023-09-19T14:25:36;22.20;90.00
5846;DHT22;2949;50.778;7.094;2023-09-19T14:28:04;22.30;88.10
5846;DHT22;2949;50.778;7.094;2023-09-19T14:30:29;22.50;86.10
5846;DHT22;2949;50.778;7.094;2023-09-19T14:32:55;22.50;83.40
5846;DHT22;2949;50.778;7.094;2023-09-19T14:35:23;22.40;86.60
5846;DHT22;2949;50.778;7.094;2023-09-19T14:37:48;22.50;84.60
5846;DHT22;2949;50.778;7.094;2023-09-19T14:40:14;22.40;85.30
5846;DHT22;2949;50.778;7.094;2023-09-19T14:42:43;22.40;85.00
5846;DHT22;2949;50.778;7.094;2023-09-19T14:45:10;22.30;85.80
5846;DHT22;2949;50.778;7.094;2023-09-19T14:47:37;22.40;87.70
5846;DHT22;2949;50.778;7.094;2023-09-19T14:50:03;22.40;87.70
5846;DHT22;2949;50.778;7.094;2023-09-19T14:52:32;22.70;85.20
5846;DHT22;2949;50.778;7.094;2023-09-19T14:54:59;22.80;86.60
5846;DHT22;2949;50.778;7.094;2023-09-19T14:57:24;22.90;85.80
5846;DHT22;2949;50.778;7.094;2023-09-19T14:59:51;22.90;86.80
5846;DHT22;2949;50.778;7.094;2023-09-19T15:02:17;22.80;83.50
5846;DHT22;2949;50.778;7.094;2023-09-19T15:04:43;22.50;84.80
5846;DHT22;2949;50.778;7.094;2023-09-19T15:07:10;22.40;85.30
5846;DHT22;2949;50.778;7.094;2023-09-19T15:09:35;22.30;84.40
5846;DHT22;2949;50.778;7.094;2023-09-19T15:12:01;22.10;84.50
5846;DHT22;2949;50.778;7.094;2023-09-19T15:14:27;21.90;86.30
5846;DHT22;2949;50.778;7.094;2023-09-19T15:16:54;22.00;87.40
5846;DHT22;2949;50.778;7.094;2023-09-19T15:19:20;22.00;87.50
5846;DHT22;2949;50.778;7.094;2023-09-19T15:21:48;22.00;87.10
5846;DHT22;2949;50.778;7.094;2023-09-19T15:24:13;22.00;85.50
5846;DHT22;2949;50.778;7.094;2023-09-19T15:26:40;21.90;88.90
5846;DHT22;2949;50.778;7.094;2023-09-19T15:29:09;21.90;90.20
5846;DHT22;2949;50.778;7.094;2023-09-19T15:31:35;22.20;89.70
5846;DHT22;2949;50.778;7.094;2023-09-19T15:34:04;22.20;86.80
5846;DHT22;2949;50.778;7.094;2023-09-19T15:36:30;22.10;86.30
5846;DHT22;2949;50.778;7.094;2023-09-19T15:39:06;22.00;87.40
5846;DHT22;2949;50.778;7.094;2023-09-19T15:41:34;21.80;90.10
5846;DHT22;2949;50.778;7.094;2023-09-19T15:44:01;21.60;89.30
5846;DHT22;2949;50.778;7.094;2023-09-19T15:46:32;21.40;88.10
5846;DHT22;2949;50.778;7.094;2023-09-19T15:49:01;21.30;90.50
5846;DHT22;2949;50.778;7.094;2023-09-19T15:51:27;21.20;90.40
5846;DHT22;2949;50.778;7.094;2023-09-19T15:53:54;21.10;90.20
5846;DHT22;2949;50.778;7.094;2023-09-19T15:56:22;21.00;90.20
5846;DHT22;2949;50.778;7.094;2023-09-19T15:58:51;20.90;90.70
5846;DHT22;2949;50.778;7.094;2023-09-19T16:01:18;20.90;91.50
5846;DHT22;2949;50.778;7.094;2023-09-19T16:03:46;20.90;91.50
5846;DHT22;2949;50.778;7.094;2023-09-19T16:06:16;20.80;92.10
5846;DHT22;2949;50.778;7.094;2023-09-19T16:08:47;20.90;92.20
5846;DHT22;2949;50.778;7.094;2023-09-19T16:11:13;20.90;92.50
5846;DHT22;2949;50.778;7.094;2023-09-19T16:13:40;20.90;92.20
5846;DHT22;2949;50.778;7.094;2023-09-19T16:16:12;20.90;93.30
5846;DHT22;2949;50.778;7.094;2023-09-19T16:18:39;20.80;93.40
5846;DHT22;2949;50.778;7.094;2023-09-19T16:21:05;20.90;93.40
5846;DHT22;2949;50.778;7.094;2023-09-19T16:23:31;21.00;93.90
5846;DHT22;2949;50.778;7.094;2023-09-19T16:26:08;21.20;94.30
5846;DHT22;2949;50.778;7.094;2023-09-19T16:28:39;21.20;93.90
5846;DHT22;2949;50.778;7.094;2023-09-19T16:31:06;21.10;94.10
5846;DHT22;2949;50.778;7.094;2023-09-19T16:33:36;21.10;94.10
5846;DHT22;2949;50.778;7.094;2023-09-19T16:36:07;21.10;93.90
5846;DHT22;2949;50.778;7.094;2023-09-19T16:38:33;21.10;94.30
5846;DHT22;2949;50.778;7.094;2023-09-19T16:40:59;21.00;94.90
5846;DHT22;2949;50.778;7.094;2023-09-19T16:43:25;20.90;94.70
5846;DHT22;2949;50.778;7.094;2023-09-19T16:46:02;20.80;95.30
5846;DHT22;2949;50.778;7.094;2023-09-19T16:48:29;20.60;95.30
5846;DHT22;2949;50.778;7.094;2023-09-19T16:50:59;20.40;96.00
5846;DHT22;2949;50.778;7.094;2023-09-19T16:53:25;20.30;96.50